Overlook, Kentucky
Current Conditions -  °F | °C
As of 4:15 AM on Thursday 29 Jan 2015 (Local Time) from K5M9 Reporting Station
Clear Clear  
Wind Chill: 45°   Ceiling: Unl
Heat Index: 50°   Visibility: 10mi
Dew Point: 34°   Wind: 10mph
Humidity: 56%   Direction: 210°SSW
Pressure: 29.89"   Gusts: 20mph
Location:  37.0504°N, 88.0159°W
Report Text: K5M9 291015Z AUTO 21009G17KT 180V250 10SM CLR 10/01 A2989 RMK AO2 T00980013
Loading
Personal Weather Stations






























Interactive Weather Map New forecast layout! Learn more

10-Day Weather Forecast

Advertisements
Track Severe Weather on mobile